Time;durP1;ratioP1;P1;durP2;ratioP2;P2;SDS_P1;SDS_P2;PMS_P1;PMS_P2;Temp;Humidity;BMP_temperature;BMP_pressure;BME280_temperature;BME280_humidity;BME280_pressure;Samples;Min_cycle;Max_cycle;Signal;HPM_P1;HPM_P2
2021/10/15 00:01:48;;;;;;;6.90;3.58;;;14.00;93.70;;;;;;5014122;28;20490;-76
2021/10/15 00:04:14;;;;;;;7.68;3.50;;;14.00;93.70;;;;;;5012464;28;20058;-77
2021/10/15 00:06:40;;;;;;;6.97;3.63;;;14.00;93.70;;;;;;5013028;28;20065;-76
2021/10/15 00:09:05;;;;;;;8.20;4.30;;;14.00;93.70;;;;;;5014386;28;20514;-77
2021/10/15 00:11:31;;;;;;;6.65;3.53;;;14.00;93.70;;;;;;5013531;28;20034;-77
2021/10/15 00:13:56;;;;;;;6.50;3.55;;;14.00;93.70;;;;;;5014148;28;20022;-77
2021/10/15 00:16:22;;;;;;;5.38;3.55;;;13.90;93.70;;;;;;5028781;28;20022;-75
2021/10/15 00:18:48;;;;;;;7.80;3.92;;;13.90;93.70;;;;;;5029269;28;20029;-76
2021/10/15 00:21:13;;;;;;;8.73;3.75;;;13.90;93.70;;;;;;5013494;28;20026;-79
2021/10/15 00:23:39;;;;;;;7.50;4.05;;;13.90;93.70;;;;;;5012321;28;20057;-76
2021/10/15 00:26:05;;;;;;;6.72;4.00;;;13.80;93.70;;;;;;5013695;28;20061;-77
2021/10/15 00:28:30;;;;;;;5.78;3.25;;;13.90;93.70;;;;;;5012080;28;20139;-77
2021/10/15 00:30:58;;;;;;;7.80;3.60;;;13.90;93.80;;;;;;5012184;28;20038;-76
2021/10/15 00:33:23;;;;;;;5.97;3.28;;;13.90;93.80;;;;;;5011405;28;20034;-77
2021/10/15 00:35:49;;;;;;;6.88;3.75;;;13.90;93.80;;;;;;5012427;28;20368;-76
2021/10/15 00:38:15;;;;;;;6.57;3.47;;;13.90;93.80;;;;;;5011807;28;20025;-76
2021/10/15 00:40:40;;;;;;;7.35;3.40;;;13.90;93.80;;;;;;5012484;28;20022;-76
2021/10/15 00:43:06;;;;;;;5.43;3.40;;;13.90;93.80;;;;;;5013844;28;20034;-76
2021/10/15 00:45:32;;;;;;;6.00;2.88;;;13.90;93.80;;;;;;5011683;28;20022;-77
2021/10/15 00:47:57;;;;;;;6.85;3.38;;;13.90;93.80;;;;;;5013043;28;20029;-77
2021/10/15 00:50:23;;;;;;;6.22;3.55;;;13.90;93.80;;;;;;5008305;28;20448;-76
2021/10/15 00:52:49;;;;;;;7.70;3.80;;;13.90;93.80;;;;;;5008861;28;20022;-76
2021/10/15 00:55:14;;;;;;;6.25;3.53;;;13.80;93.80;;;;;;4993236;28;20453;-77
2021/10/15 00:57:40;;;;;;;5.18;3.13;;;13.80;93.80;;;;;;5008950;28;20045;-76
2021/10/15 01:00:06;;;;;;;7.55;4.53;;;13.80;93.90;;;;;;5008735;28;20479;-77
2021/10/15 01:02:32;;;;;;;6.32;3.55;;;13.80;93.80;;;;;;4992900;28;20030;-77
2021/10/15 01:04:58;;;;;;;6.72;3.17;;;13.80;93.90;;;;;;4993648;28;20478;-78
2021/10/15 01:07:26;;;;;;;7.90;3.88;;;13.80;93.90;;;;;;4993114;28;20022;-77
2021/10/15 01:09:52;;;;;;;9.48;4.05;;;13.80;93.90;;;;;;5008707;28;20063;-77
2021/10/15 01:12:19;;;;;;;7.60;3.50;;;13.80;93.90;;;;;;4992515;28;20164;-77
2021/10/15 01:14:45;;;;;;;7.82;3.70;;;13.80;93.90;;;;;;5008582;28;20032;-77
2021/10/15 01:17:11;;;;;;;6.57;3.60;;;13.90;93.90;;;;;;4993727;28;20109;-77
2021/10/15 01:19:36;;;;;;;7.88;3.10;;;13.90;93.90;;;;;;5007801;28;20061;-77
2021/10/15 01:22:04;;;;;;;8.38;3.95;;;13.90;93.90;;;;;;4993408;28;20030;-77
2021/10/15 01:24:32;;;;;;;6.47;3.65;;;13.90;93.80;;;;;;4992619;28;20035;-77
2021/10/15 01:27:05;;;;;;;6.78;3.58;;;13.80;93.80;;;;;;5008542;28;20435;-77
2021/10/15 01:29:31;;;;;;;7.30;3.70;;;13.90;93.80;;;;;;5007767;28;20026;-78
2021/10/15 01:31:57;;;;;;;7.32;3.55;;;13.90;94.10;;;;;;4992679;28;20382;-77
2021/10/15 01:34:23;;;;;;;6.72;3.47;;;13.90;93.90;;;;;;5007591;28;20029;-77
2021/10/15 01:36:49;;;;;;;8.23;4.13;;;13.90;93.90;;;;;;5008291;28;20054;-77
2021/10/15 01:39:15;;;;;;;8.73;4.15;;;13.90;93.90;;;;;;5007536;28;20065;-80
2021/10/15 01:41:40;;;;;;;6.28;3.53;;;13.80;93.90;;;;;;4993037;28;20031;-77
2021/10/15 01:44:06;;;;;;;7.53;4.15;;;13.90;93.90;;;;;;4993127;28;20022;-77
2021/10/15 01:46:32;;;;;;;6.78;4.13;;;13.80;93.90;;;;;;5006648;28;20117;-77
2021/10/15 01:48:57;;;;;;;6.68;3.88;;;13.80;93.90;;;;;;4992992;28;20030;-77
2021/10/15 01:51:23;;;;;;;8.18;3.88;;;13.80;93.90;;;;;;5007444;28;20034;-77
2021/10/15 01:53:49;;;;;;;6.57;3.35;;;13.80;93.90;;;;;;4992956;28;20164;-77
2021/10/15 01:56:14;;;;;;;7.85;3.97;;;13.80;94.00;;;;;;5007957;28;20479;-77
2021/10/15 01:58:40;;;;;;;8.40;3.85;;;13.80;94.00;;;;;;5007812;28;20030;-77
2021/10/15 02:01:06;;;;;;;8.60;3.85;;;13.80;94.00;;;;;;5007983;28;20467;-77
2021/10/15 02:03:31;;;;;;;6.85;3.60;;;13.80;94.00;;;;;;5007257;28;20583;-77
2021/10/15 02:05:57;;;;;;;6.93;4.22;;;13.80;94.10;;;;;;4992767;28;20105;-77
2021/10/15 02:08:23;;;;;;;7.55;4.15;;;13.80;94.10;;;;;;4990908;28;20023;-77
2021/10/15 02:10:48;;;;;;;5.80;3.72;;;13.80;94.10;;;;;;5007731;28;20462;-77
2021/10/15 02:13:14;;;;;;;5.97;3.95;;;13.80;94.10;;;;;;5007913;28;20237;-77
2021/10/15 02:15:39;;;;;;;5.57;3.38;;;13.80;94.10;;;;;;4992149;28;20022;-77
2021/10/15 02:18:05;;;;;;;8.93;4.78;;;13.80;94.10;;;;;;5007865;28;20037;-77
2021/10/15 02:20:31;;;;;;;10.43;4.72;;;13.80;94.10;;;;;;4992304;28;20463;-77
2021/10/15 02:22:56;;;;;;;8.02;4.43;;;13.80;94.10;;;;;;4991602;28;20475;-77
2021/10/15 02:25:23;;;;;;;7.50;4.38;;;13.80;94.20;;;;;;5007230;28;20459;-77
2021/10/15 02:27:50;;;;;;;11.93;5.22;;;13.80;94.20;;;;;;4992593;28;20440;-77
2021/10/15 02:30:17;;;;;;;8.02;4.07;;;13.80;94.20;;;;;;4992634;28;20459;-77
2021/10/15 02:32:44;;;;;;;8.65;4.18;;;13.80;94.10;;;;;;5007526;28;20506;-77
2021/10/15 02:35:11;;;;;;;6.15;3.67;;;13.80;94.20;;;;;;5007490;28;20022;-78
2021/10/15 02:37:37;;;;;;;7.28;3.50;;;13.70;94.20;;;;;;5006953;28;20324;-77
2021/10/15 02:40:04;;;;;;;7.22;3.47;;;13.70;94.30;;;;;;4991187;28;20026;-77
2021/10/15 02:42:30;;;;;;;7.60;3.95;;;13.70;94.30;;;;;;4991904;28;20033;-75
2021/10/15 02:44:56;;;;;;;12.73;4.55;;;13.70;94.30;;;;;;4992622;28;20371;-76
2021/10/15 02:47:23;;;;;;;9.93;4.25;;;13.70;94.30;;;;;;5006886;28;20033;-77
2021/10/15 02:49:49;;;;;;;7.05;4.53;;;13.70;94.30;;;;;;4992348;28;20023;-76
2021/10/15 02:52:16;;;;;;;10.23;4.75;;;13.70;94.30;;;;;;4992217;28;20049;-76
2021/10/15 02:54:41;;;;;;;7.78;4.40;;;13.70;94.40;;;;;;4990432;28;20038;-76
2021/10/15 02:57:07;;;;;;;8.27;4.32;;;13.70;94.40;;;;;;4992550;28;20018;-76
2021/10/15 02:59:33;;;;;;;7.80;4.57;;;13.70;94.40;;;;;;4995235;28;20085;-76
2021/10/15 03:01:59;;;;;;;6.90;4.43;;;13.70;94.40;;;;;;4995677;28;20022;-77
2021/10/15 03:04:24;;;;;;;8.85;3.88;;;13.70;94.50;;;;;;5010320;28;20422;-77
2021/10/15 03:06:50;;;;;;;10.02;5.15;;;13.70;94.50;;;;;;4995776;28;20034;-76
2021/10/15 03:09:16;;;;;;;8.13;4.10;;;13.60;94.50;;;;;;5010763;28;20113;-77
2021/10/15 03:11:41;;;;;;;10.02;4.55;;;13.70;94.50;;;;;;4994850;28;20461;-76
2021/10/15 03:14:07;;;;;;;7.90;4.15;;;13.60;94.50;;;;;;4994431;28;20030;-76
2021/10/15 03:16:33;;;;;;;8.43;5.03;;;13.60;94.50;;;;;;4995377;28;20105;-76
2021/10/15 03:18:58;;;;;;;8.13;4.28;;;13.60;94.60;;;;;;4995895;28;20034;-76
2021/10/15 03:21:24;;;;;;;9.43;4.60;;;13.60;94.60;;;;;;4994803;28;20029;-77
2021/10/15 03:23:50;;;;;;;9.57;4.30;;;13.60;94.50;;;;;;4994409;28;20033;-77
2021/10/15 03:26:15;;;;;;;8.27;4.50;;;13.70;94.60;;;;;;5010512;28;20030;-77
2021/10/15 03:28:41;;;;;;;10.13;4.55;;;13.70;94.60;;;;;;4993674;28;20394;-77
2021/10/15 03:31:07;;;;;;;10.55;4.85;;;13.60;94.60;;;;;;4995143;28;20057;-75
2021/10/15 03:33:33;;;;;;;9.15;4.47;;;13.60;94.60;;;;;;4997275;28;20030;-76
2021/10/15 03:35:59;;;;;;;8.20;4.57;;;13.60;94.70;;;;;;5002145;28;20396;-78
2021/10/15 03:38:25;;;;;;;8.07;4.70;;;13.60;94.70;;;;;;5019269;28;20096;-78
2021/10/15 03:40:51;;;;;;;8.07;4.28;;;13.60;94.60;;;;;;5018588;28;20402;-78
2021/10/15 03:43:17;;;;;;;7.78;4.43;;;13.60;94.60;;;;;;5006136;28;20085;-78
2021/10/15 03:45:43;;;;;;;8.98;4.65;;;13.60;94.60;;;;;;4994630;28;20561;-77
2021/10/15 03:48:08;;;;;;;7.25;3.85;;;13.60;94.60;;;;;;4993729;28;20019;-77
2021/10/15 03:50:34;;;;;;;9.35;4.72;;;13.60;94.70;;;;;;5009705;28;20023;-78
2021/10/15 03:53:00;;;;;;;8.80;4.60;;;13.60;94.70;;;;;;4995050;28;20073;-78
2021/10/15 03:55:26;;;;;;;9.05;4.80;;;13.60;94.70;;;;;;5011796;28;20025;-78
2021/10/15 03:57:52;;;;;;;11.43;5.00;;;13.60;94.70;;;;;;5006768;28;20018;-78
2021/10/15 04:00:18;;;;;;;8.68;5.05;;;13.60;94.70;;;;;;5003219;28;20050;-78
2021/10/15 04:02:45;;;;;;;8.60;4.55;;;13.60;94.70;;;;;;5003229;28;20501;-78
2021/10/15 04:05:12;;;;;;;7.97;3.72;;;13.60;94.70;;;;;;4996459;28;20097;-78
2021/10/15 04:07:38;;;;;;;12.15;4.28;;;13.60;94.70;;;;;;4996876;28;20137;-78
2021/10/15 04:10:06;;;;;;;9.40;4.38;;;13.60;94.80;;;;;;5012461;28;20033;-79
2021/10/15 04:12:32;;;;;;;8.63;4.07;;;13.70;94.80;;;;;;5008466;28;20390;-77
2021/10/15 04:14:59;;;;;;;7.75;4.72;;;13.70;94.70;;;;;;5000785;28;20482;-77
2021/10/15 04:17:25;;;;;;;8.52;4.28;;;13.70;94.70;;;;;;4994756;28;20018;-78
2021/10/15 04:19:51;;;;;;;8.88;4.18;;;13.70;94.80;;;;;;5010600;28;20018;-77
2021/10/15 04:22:16;;;;;;;8.45;4.53;;;13.60;94.70;;;;;;5029373;28;20029;-78
2021/10/15 04:24:42;;;;;;;8.60;4.82;;;13.60;94.80;;;;;;5028604;28;20108;-78
2021/10/15 04:27:08;;;;;;;8.60;5.07;;;13.60;94.80;;;;;;5012796;28;20026;-78
2021/10/15 04:29:34;;;;;;;7.30;3.75;;;13.60;94.80;;;;;;5011375;28;20451;-79
2021/10/15 04:31:59;;;;;;;9.60;4.68;;;13.60;94.90;;;;;;5011448;28;20057;-77
2021/10/15 04:34:26;;;;;;;8.80;5.38;;;13.60;94.90;;;;;;5011889;28;20097;-78
2021/10/15 04:36:52;;;;;;;9.18;4.75;;;13.60;94.90;;;;;;5010333;28;20049;-78
2021/10/15 04:39:18;;;;;;;8.00;4.18;;;13.60;94.90;;;;;;5010899;28;20050;-77
2021/10/15 04:41:43;;;;;;;9.82;4.85;;;13.50;94.90;;;;;;5006127;28;20026;-79
2021/10/15 04:44:09;;;;;;;9.50;5.05;;;13.50;94.90;;;;;;4992178;28;20022;-79
2021/10/15 04:46:35;;;;;;;6.60;3.92;;;13.60;95.00;;;;;;4989737;28;20394;-79
2021/10/15 04:49:01;;;;;;;9.35;4.53;;;13.60;95.00;;;;;;4992168;28;20054;-79
2021/10/15 04:51:28;;;;;;;15.75;4.55;;;13.60;95.00;;;;;;4993174;28;20117;-78
2021/10/15 04:53:53;;;;;;;9.88;5.38;;;13.50;94.90;;;;;;5013772;28;20132;-78
2021/10/15 04:56:19;;;;;;;9.02;5.10;;;13.60;95.00;;;;;;4999991;28;20515;-79
2021/10/15 04:58:45;;;;;;;8.75;4.90;;;13.60;95.00;;;;;;5000267;28;20359;-79
2021/10/15 05:01:11;;;;;;;9.68;5.30;;;13.60;95.00;;;;;;5006466;28;20121;-79
2021/10/15 05:03:36;;;;;;;15.55;5.82;;;13.60;95.00;;;;;;4989549;28;20431;-79
2021/10/15 05:06:02;;;;;;;8.55;5.03;;;13.60;95.10;;;;;;5026588;28;20091;-78
2021/10/15 05:08:33;;;;;;;10.45;5.85;;;13.60;95.10;;;;;;5012551;28;20025;-79
2021/10/15 05:10:59;;;;;;;8.90;5.13;;;13.60;95.10;;;;;;5013192;28;20017;-78
2021/10/15 05:13:25;;;;;;;11.75;5.63;;;13.60;95.10;;;;;;5011928;28;20091;-78
2021/10/15 05:15:51;;;;;;;8.90;5.00;;;13.60;95.10;;;;;;5012509;28;20484;-79
2021/10/15 05:18:17;;;;;;;9.15;4.90;;;13.60;95.10;;;;;;5013215;28;20030;-78
2021/10/15 05:20:44;;;;;;;9.25;4.90;;;13.70;95.10;;;;;;5027077;28;20023;-78
2021/10/15 05:23:11;;;;;;;9.43;4.78;;;13.70;95.10;;;;;;5012922;28;20044;-78
2021/10/15 05:25:37;;;;;;;8.05;4.60;;;13.60;95.10;;;;;;5010642;28;20028;-78
2021/10/15 05:28:04;;;;;;;7.85;4.80;;;13.60;95.20;;;;;;5011434;28;20018;-77
2021/10/15 05:30:30;;;;;;;9.13;5.03;;;13.60;95.30;;;;;;5027339;28;20459;-81
2021/10/15 05:32:56;;;;;;;9.88;4.97;;;13.60;95.40;;;;;;5027410;28;20053;-77
2021/10/15 05:35:22;;;;;;;8.18;4.97;;;13.60;95.40;;;;;;5011377;28;20121;-77
2021/10/15 05:37:48;;;;;;;11.63;5.85;;;13.50;95.40;;;;;;5027259;28;20049;-77
2021/10/15 05:40:14;;;;;;;10.48;6.05;;;13.60;95.50;;;;;;5011458;28;20022;-78
2021/10/15 05:42:48;;;;;;;10.32;5.57;;;13.60;95.60;;;;;;5012288;28;20037;-78
2021/10/15 05:45:15;;;;;;;13.52;6.57;;;13.60;95.60;;;;;;5027720;28;20026;-78
2021/10/15 05:47:40;;;;;;;11.68;6.07;;;13.50;95.60;;;;;;5026530;28;20034;-78
2021/10/15 05:50:08;;;;;;;10.32;5.57;;;13.50;95.70;;;;;;5012111;28;20022;-78
2021/10/15 05:52:36;;;;;;;10.32;5.50;;;13.60;95.70;;;;;;5026956;28;20018;-78
2021/10/15 06:00:04;;;;;;;10.85;6.57;;;13.60;95.70;;;;;;5012541;28;20030;-78
2021/10/15 06:02:34;;;;;;;10.82;6.22;;;13.60;95.80;;;;;;5027432;28;20026;-77
2021/10/15 06:05:49;;;;;;;12.13;6.70;;;13.50;95.80;;;;;;5027571;28;20112;-77
2021/10/15 06:15:50;;;;;;;10.85;5.78;;;13.60;95.80;;;;;;5011601;28;20448;-77
2021/10/15 06:18:18;;;;;;;13.07;5.80;;;13.60;95.80;;;;;;5012226;28;20467;-77
2021/10/15 06:20:45;;;;;;;10.05;5.57;;;13.60;95.80;;;;;;5010450;28;20238;-78
2021/10/15 06:23:11;;;;;;;10.07;5.20;;;13.60;95.80;;;;;;5026974;28;20113;-78
2021/10/15 06:25:36;;;;;;;12.38;6.57;;;13.60;95.90;;;;;;5010231;28;20117;-77
2021/10/15 06:28:03;;;;;;;13.20;6.47;;;13.60;95.80;;;;;;5010688;28;20438;-77
2021/10/15 06:30:30;;;;;;;8.13;4.85;;;13.60;95.80;;;;;;5010783;28;20026;-78
2021/10/15 06:32:56;;;;;;;10.35;5.95;;;13.60;95.80;;;;;;5014377;28;20054;-78
2021/10/15 06:35:22;;;;;;;9.95;5.20;;;13.70;95.90;;;;;;5015994;28;20033;-78
2021/10/15 06:37:49;;;;;;;9.05;5.75;;;13.70;95.90;;;;;;5030614;28;20048;-78
2021/10/15 06:40:15;;;;;;;11.88;6.63;;;13.70;95.80;;;;;;5031003;28;20034;-79
2021/10/15 06:42:41;;;;;;;14.20;6.47;;;13.70;95.90;;;;;;5014819;28;20026;-78
2021/10/15 06:45:08;;;;;;;10.50;5.80;;;13.70;95.90;;;;;;5030985;28;20121;-78
2021/10/15 06:47:34;;;;;;;11.02;5.03;;;13.70;95.90;;;;;;5031076;28;20117;-79
2021/10/15 06:50:00;;;;;;;14.18;7.38;;;13.60;96.00;;;;;;5015751;28;20403;-79
2021/10/15 06:52:26;;;;;;;12.32;6.80;;;13.50;96.20;;;;;;5030838;28;20107;-79
2021/10/15 06:54:51;;;;;;;10.18;6.20;;;13.40;96.40;;;;;;5013472;28;20368;-79
2021/10/15 06:57:17;;;;;;;14.80;6.80;;;13.30;96.50;;;;;;5015956;28;20109;-79
2021/10/15 06:59:43;;;;;;;11.23;5.25;;;13.20;96.70;;;;;;5014899;28;20024;-79
2021/10/15 07:02:09;;;;;;;13.43;6.47;;;13.30;96.80;;;;;;5014202;28;20032;-79
2021/10/15 07:04:35;;;;;;;10.48;5.85;;;13.20;96.80;;;;;;5015932;28;20033;-79
2021/10/15 07:07:02;;;;;;;9.73;5.55;;;13.10;97.00;;;;;;5030468;28;20031;-76
2021/10/15 07:09:28;;;;;;;6.35;3.25;;;13.10;97.10;;;;;;5015305;28;20036;-77
2021/10/15 07:11:54;;;;;;;7.28;3.22;;;13.00;97.40;;;;;;5014621;28;20026;-77
2021/10/15 07:14:19;;;;;;;4.65;2.75;;;12.90;97.60;;;;;;5030211;28;20340;-77
2021/10/15 07:16:45;;;;;;;4.45;2.30;;;12.90;97.70;;;;;;5014571;28;20105;-77
2021/10/15 07:19:12;;;;;;;6.35;2.22;;;12.90;97.70;;;;;;5015124;28;20026;-77
2021/10/15 07:21:38;;;;;;;3.08;1.70;;;12.90;97.80;;;;;;5014543;28;20470;-79
2021/10/15 07:24:04;;;;;;;2.70;1.50;;;12.90;97.90;;;;;;5015090;28;20071;-77
2021/10/15 07:26:29;;;;;;;1.67;1.05;;;12.80;98.10;;;;;;5014996;28;20022;-77
2021/10/15 07:28:55;;;;;;;1.48;0.98;;;12.80;98.10;;;;;;5029529;28;20473;-77
2021/10/15 07:31:21;;;;;;;2.05;0.75;;;12.80;98.20;;;;;;5029934;28;20099;-76
2021/10/15 07:33:48;;;;;;;0.77;0.57;;;12.70;98.30;;;;;;5013995;28;20037;-76
2021/10/15 07:36:14;;;;;;;1.38;0.60;;;12.70;98.40;;;;;;5029864;28;20026;-77
2021/10/15 07:38:40;;;;;;;0.70;0.40;;;12.60;98.60;;;;;;5012841;28;20048;-76
2021/10/15 07:41:07;;;;;;;0.30;0.30;;;12.70;98.70;;;;;;5013627;28;20466;-76
2021/10/15 07:43:33;;;;;;;0.93;0.40;;;12.70;98.80;;;;;;5012034;28;20022;-76
2021/10/15 07:45:59;;;;;;;1.30;0.35;;;12.70;98.80;;;;;;5014103;28;20372;-76
2021/10/15 07:48:25;;;;;;;1.40;0.32;;;12.60;98.90;;;;;;5029718;28;20109;-76
2021/10/15 07:50:51;;;;;;;0.63;0.43;;;12.50;99.00;;;;;;5013965;28;20026;-76
2021/10/15 07:53:17;;;;;;;3.53;0.47;;;12.50;99.10;;;;;;5029301;28;20486;-76
2021/10/15 07:55:43;;;;;;;2.30;0.50;;;12.40;99.30;;;;;;5029094;28;20029;-76
2021/10/15 07:58:08;;;;;;;1.17;0.50;;;12.50;99.40;;;;;;5014648;28;20096;-76
2021/10/15 08:00:36;;;;;;;1.55;0.50;;;12.50;99.40;;;;;;5013111;28;20051;-76
2021/10/15 08:03:02;;;;;;;0.95;0.40;;;12.50;99.50;;;;;;5013986;28;20030;-76
2021/10/15 08:05:27;;;;;;;1.10;0.40;;;12.50;99.50;;;;;;5014530;28;20038;-76
2021/10/15 08:07:53;;;;;;;0.55;0.30;;;12.50;99.40;;;;;;5028854;28;20025;-76
2021/10/15 08:10:19;;;;;;;0.47;0.40;;;12.50;99.50;;;;;;5014038;28;20022;-76
2021/10/15 08:12:45;;;;;;;0.88;0.40;;;12.50;99.60;;;;;;5028668;28;20486;-76
2021/10/15 08:15:12;;;;;;;1.52;0.50;;;12.50;99.60;;;;;;5029257;28;20467;-76
2021/10/15 08:17:38;;;;;;;1.75;0.47;;;12.50;99.60;;;;;;5014211;28;20024;-76
2021/10/15 08:20:05;;;;;;;1.33;0.50;;;12.50;99.60;;;;;;5028754;28;20014;-76
2021/10/15 08:22:31;;;;;;;2.75;0.57;;;12.60;99.70;;;;;;5012958;28;20034;-76
2021/10/15 08:24:56;;;;;;;0.68;0.68;;;12.70;99.70;;;;;;5013360;28;20022;-76
2021/10/15 08:27:22;;;;;;;0.80;0.60;;;12.70;99.70;;;;;;5028992;28;20466;-76
2021/10/15 08:29:48;;;;;;;5.40;0.60;;;12.70;99.70;;;;;;5013034;28;20030;-76
2021/10/15 08:32:13;;;;;;;0.68;0.40;;;12.70;99.70;;;;;;5013693;28;20050;-75
2021/10/15 08:34:39;;;;;;;0.95;0.43;;;12.70;99.80;;;;;;5014205;28;20026;-76
2021/10/15 08:37:05;;;;;;;2.75;0.55;;;12.70;99.80;;;;;;5028278;28;20093;-76
2021/10/15 08:39:31;;;;;;;0.63;0.45;;;12.70;99.80;;;;;;5028719;28;20026;-77
2021/10/15 08:41:59;;;;;;;1.67;0.35;;;12.70;99.80;;;;;;5013283;28;20037;-76
2021/10/15 08:44:48;;;;;;;3.17;0.77;;;12.70;99.90;;;;;;5028348;28;20080;-77
2021/10/15 08:47:16;;;;;;;0.77;0.40;;;12.70;99.90;;;;;;5013582;28;20026;-76
2021/10/15 08:49:46;;;;;;;0.73;0.38;;;12.70;99.90;;;;;;5028398;28;20112;-76
2021/10/15 08:52:13;;;;;;;1.60;0.60;;;12.70;99.90;;;;;;5013340;28;20036;-77
2021/10/15 08:54:43;;;;;;;0.40;0.40;;;12.80;99.90;;;;;;5012724;28;20421;-78
2021/10/15 08:57:10;;;;;;;2.65;0.68;;;12.80;99.90;;;;;;5012142;28;20459;-77
2021/10/15 08:59:44;;;;;;;2.83;0.80;;;12.80;99.90;;;;;;5012515;28;20022;-77
2021/10/15 09:02:19;;;;;;;1.17;0.50;;;12.90;99.90;;;;;;5028711;28;20033;-77
2021/10/15 09:04:50;;;;;;;5.00;0.68;;;12.90;99.90;;;;;;5028870;28;20025;-81
2021/10/15 09:07:19;;;;;;;1.00;0.55;;;13.00;99.90;;;;;;5028438;28;20025;-77
2021/10/15 09:09:46;;;;;;;3.60;0.88;;;13.00;99.90;;;;;;5012671;28;20058;-81
2021/10/15 09:12:16;;;;;;;3.10;0.77;;;12.90;99.90;;;;;;5013089;28;20095;-77
2021/10/15 09:14:42;;;;;;;2.10;0.70;;;13.10;99.90;;;;;;5011788;28;20420;-77
2021/10/15 09:17:16;;;;;;;1.42;0.70;;;13.10;99.80;;;;;;5027657;28;20161;-77
2021/10/15 09:19:50;;;;;;;2.13;0.95;;;13.10;99.80;;;;;;5013237;28;20100;-77
2021/10/15 09:22:25;;;;;;;2.17;0.77;;;13.20;99.80;;;;;;5028091;28;20077;-77
2021/10/15 09:25:03;;;;;;;1.48;0.80;;;13.10;99.80;;;;;;5027618;28;20324;-78
2021/10/15 09:27:32;;;;;;;0.95;0.70;;;13.10;99.70;;;;;;5011530;28;20036;-77
2021/10/15 09:30:08;;;;;;;3.83;1.02;;;13.10;99.80;;;;;;5012152;28;20018;-78
2021/10/15 09:32:39;;;;;;;2.63;0.70;;;13.10;99.90;;;;;;5012363;28;20133;-76
2021/10/15 09:35:08;;;;;;;3.40;1.00;;;13.00;99.90;;;;;;5010586;28;20418;-76
2021/10/15 09:37:36;;;;;;;2.85;0.52;;;13.00;99.90;;;;;;5027931;28;20029;-76
2021/10/15 09:40:20;;;;;;;4.90;0.90;;;13.00;99.90;;;;;;5027215;28;20033;-76
2021/10/15 09:42:48;;;;;;;4.90;1.30;;;12.90;99.90;;;;;;5012504;28;20033;-76
2021/10/15 09:45:25;;;;;;;3.30;0.85;;;12.80;99.90;;;;;;5012877;28;20037;-77
2021/10/15 09:47:58;;;;;;;2.97;1.10;;;12.80;99.90;;;;;;5011980;28;20018;-78
2021/10/15 09:50:29;;;;;;;2.25;0.95;;;12.90;99.90;;;;;;5012877;28;20466;-77
2021/10/15 09:52:58;;;;;;;3.75;1.15;;;12.90;99.90;;;;;;5027000;28;20041;-78
2021/10/15 09:55:28;;;;;;;1.85;0.90;;;12.90;99.90;;;;;;5027655;28;20021;-78
2021/10/15 09:57:56;;;;;;;5.53;1.40;;;12.90;99.90;;;;;;5011785;28;20053;-78
2021/10/15 10:00:31;;;;;;;3.40;1.38;;;12.90;99.90;;;;;;5027417;28;20025;-77
2021/10/15 10:02:57;;;;;;;4.25;1.02;;;13.00;99.90;;;;;;5026900;28;20029;-77
2021/10/15 10:05:23;;;;;;;3.67;1.20;;;13.10;99.90;;;;;;5012180;28;20026;-77
2021/10/15 10:07:51;;;;;;;3.60;0.90;;;13.30;99.90;;;;;;5011400;28;20091;-83
2021/10/15 10:10:19;;;;;;;2.67;1.00;;;13.40;99.90;;;;;;5012516;28;20026;-77
2021/10/15 10:12:46;;;;;;;2.85;1.10;;;13.50;99.80;;;;;;5012215;28;20155;-77
2021/10/15 10:15:18;;;;;;;5.07;1.70;;;13.50;99.80;;;;;;5011400;28;20046;-78
2021/10/15 10:17:50;;;;;;;6.68;1.15;;;13.60;99.80;;;;;;5027360;28;20413;-78
2021/10/15 10:20:20;;;;;;;5.32;1.30;;;13.70;99.70;;;;;;5012113;28;20030;-78
2021/10/15 10:23:11;;;;;;;5.40;1.00;;;13.80;99.60;;;;;;5027432;28;20128;-77
2021/10/15 10:25:37;;;;;;;2.97;1.25;;;13.80;99.50;;;;;;5010966;28;20277;-78
2021/10/15 10:28:19;;;;;;;5.15;1.00;;;13.90;99.50;;;;;;5026602;28;20194;-78
2021/10/15 10:30:54;;;;;;;5.22;1.20;;;13.90;99.40;;;;;;5027324;28;20033;-77
2021/10/15 10:33:22;;;;;;;7.95;1.10;;;13.80;99.50;;;;;;5012492;28;20085;-77
2021/10/15 10:35:48;;;;;;;2.92;0.90;;;13.80;99.70;;;;;;5011838;28;20064;-77
2021/10/15 10:38:20;;;;;;;4.50;0.82;;;13.80;99.80;;;;;;5011609;28;20026;-78
2021/10/15 10:41:01;;;;;;;5.47;1.10;;;13.70;99.80;;;;;;5011890;28;20045;-77
2021/10/15 10:43:27;;;;;;;4.30;1.20;;;13.80;99.90;;;;;;5011944;28;20109;-78
2021/10/15 10:46:08;;;;;;;7.20;1.10;;;13.70;99.90;;;;;;5011147;28;20030;-78
2021/10/15 10:48:54;;;;;;;4.22;1.13;;;13.80;99.90;;;;;;5012447;28;20144;-77
2021/10/15 10:51:29;;;;;;;9.63;1.20;;;13.80;99.90;;;;;;5026820;28;20022;-78
2021/10/15 10:54:07;;;;;;;2.33;1.10;;;13.80;99.90;;;;;;5010200;28;20076;-78
2021/10/15 10:56:42;;;;;;;1.65;0.70;;;13.80;99.90;;;;;;5010831;28;20030;-78
2021/10/15 10:59:20;;;;;;;5.40;1.00;;;13.90;99.90;;;;;;5010105;28;20026;-77
2021/10/15 11:01:54;;;;;;;8.38;1.10;;;14.10;99.90;;;;;;5011956;28;20133;-77
2021/10/15 11:04:28;;;;;;;4.45;1.35;;;14.20;99.70;;;;;;5011609;28;20386;-77
2021/10/15 11:07:30;;;;;;;2.45;1.05;;;14.40;99.50;;;;;;5011272;28;20022;-78
2021/10/15 11:10:04;;;;;;;3.97;0.90;;;14.40;99.30;;;;;;5009702;28;20034;-78
2021/10/15 11:12:30;;;;;;;6.20;1.02;;;14.20;99.30;;;;;;5010508;28;20048;-77
2021/10/15 11:14:59;;;;;;;4.13;1.02;;;14.10;99.60;;;;;;5010918;28;20113;-78
2021/10/15 11:17:33;;;;;;;2.45;0.82;;;13.90;99.80;;;;;;5027313;28;20360;-77
2021/10/15 11:20:25;;;;;;;1.35;0.85;;;13.90;99.90;;;;;;5013393;28;20021;-79
2021/10/15 11:23:03;;;;;;;3.40;0.85;;;14.00;99.90;;;;;;5015473;28;20032;-78
2021/10/15 11:25:49;;;;;;;3.33;0.90;;;14.10;99.90;;;;;;5017909;28;20525;-77
2021/10/15 11:28:20;;;;;;;5.00;1.15;;;14.20;99.90;;;;;;5013107;28;20082;-78
2021/10/15 11:30:49;;;;;;;6.25;1.20;;;14.30;99.80;;;;;;5015000;28;20034;-77
2021/10/15 11:33:18;;;;;;;5.60;1.00;;;14.40;99.60;;;;;;5029423;28;20053;-78
2021/10/15 11:35:46;;;;;;;7.65;1.38;;;14.70;99.50;;;;;;5013283;28;20018;-78
2021/10/15 11:38:19;;;;;;;3.72;0.98;;;14.90;99.20;;;;;;5012938;28;20060;-78
2021/10/15 11:40:48;;;;;;;4.22;0.82;;;15.10;98.90;;;;;;5013495;28;20065;-78
2021/10/15 11:43:26;;;;;;;1.83;0.82;;;15.10;98.70;;;;;;5014223;28;20026;-78
2021/10/15 11:46:06;;;;;;;3.92;0.85;;;14.90;98.60;;;;;;5014729;28;20045;-79
2021/10/15 11:48:37;;;;;;;2.05;0.77;;;14.70;98.80;;;;;;5015164;28;20109;-79
2021/10/15 11:51:05;;;;;;;2.80;0.70;;;14.50;98.90;;;;;;5012812;28;20034;-78
2021/10/15 11:53:40;;;;;;;5.32;0.90;;;14.30;99.10;;;;;;5014419;28;20045;-79
2021/10/15 11:56:17;;;;;;;3.70;0.63;;;14.20;99.50;;;;;;5029203;28;20022;-77
2021/10/15 11:58:46;;;;;;;3.45;1.20;;;14.10;99.50;;;;;;5029564;28;20025;-78
2021/10/15 12:01:22;;;;;;;3.95;0.80;;;14.20;99.50;;;;;;5013847;28;20029;-78
2021/10/15 12:04:13;;;;;;;2.15;0.57;;;14.30;99.40;;;;;;5014603;28;20026;-79
2021/10/15 12:06:39;;;;;;;;;;;14.30;99.30;;;;;;5013636;28;20084;-78
2021/10/15 12:09:11;;;;;;;2.53;0.85;;;14.40;99.40;;;;;;5012378;28;19905;-79
2021/10/15 12:11:36;;;;;;;4.82;0.90;;;14.40;99.30;;;;;;5014207;28;20034;-78
2021/10/15 12:14:04;;;;;;;1.63;0.50;;;14.40;99.30;;;;;;5012340;28;20026;-78
2021/10/15 12:16:40;;;;;;;2.97;0.75;;;14.50;99.40;;;;;;5029236;28;20087;-78
2021/10/15 12:19:09;;;;;;;2.17;0.65;;;14.60;99.30;;;;;;5013542;28;20029;-78
2021/10/15 12:21:43;;;;;;;2.67;0.95;;;14.90;99.30;;;;;;5029289;28;20021;-78
2021/10/15 12:24:12;;;;;;;3.30;0.82;;;15.10;98.70;;;;;;5013494;28;20025;-78
2021/10/15 12:26:38;;;;;;;4.60;0.65;;;15.10;98.40;;;;;;5029221;28;20072;-78
2021/10/15 12:29:04;;;;;;;5.13;1.00;;;15.10;98.10;;;;;;5011213;28;20459;-78
2021/10/15 12:31:36;;;;;;;3.42;0.60;;;15.10;97.80;;;;;;5012369;28;20053;-77
2021/10/15 12:34:16;;;;;;;4.90;1.00;;;15.00;97.70;;;;;;5028283;28;20553;-78
2021/10/15 12:36:42;;;;;;;4.97;1.25;;;14.90;97.50;;;;;;5013722;28;20030;-77
2021/10/15 12:39:26;;;;;;;5.03;0.90;;;14.70;97.50;;;;;;5011856;28;20033;-77
2021/10/15 12:41:54;;;;;;;3.05;1.08;;;14.60;97.40;;;;;;5012582;28;20500;-78
2021/10/15 12:44:31;;;;;;;4.90;0.90;;;14.50;97.50;;;;;;5012998;28;20030;-78
2021/10/15 12:46:58;;;;;;;4.28;0.90;;;14.40;97.40;;;;;;5012412;28;20017;-78
2021/10/15 12:49:24;;;;;;;2.30;1.08;;;14.30;97.60;;;;;;5011502;28;20080;-78
2021/10/15 12:51:50;;;;;;;4.78;1.13;;;14.20;97.60;;;;;;5028548;28;20026;-78
2021/10/15 12:54:38;;;;;;;4.88;0.88;;;14.10;97.70;;;;;;5012894;28;20026;-78
2021/10/15 12:57:15;;;;;;;3.25;1.02;;;14.10;97.70;;;;;;5027848;28;20029;-78
2021/10/15 12:59:58;;;;;;;3.03;0.88;;;14.00;97.60;;;;;;5012194;28;20366;-78
2021/10/15 13:02:27;;;;;;;4.40;0.80;;;14.10;97.70;;;;;;5011437;28;20022;-79
2021/10/15 13:04:56;;;;;;;7.05;1.23;;;14.10;97.50;;;;;;5011930;28;20025;-78